createdAt,value
2018-04-07T00:00:12.829Z,98764.44
2018-04-07T00:02:46.598Z,98779.67
2018-04-07T00:05:20.283Z,98767.88
2018-04-07T00:07:54.141Z,98770.11
2018-04-07T00:10:27.885Z,98767.36
2018-04-07T00:13:01.657Z,98768.22
2018-04-07T00:15:35.172Z,98767.06
2018-04-07T00:18:08.710Z,98777.09
2018-04-07T00:20:42.348Z,98768.31
2018-04-07T00:23:15.955Z,98771.42
2018-04-07T00:25:49.627Z,98779.10
2018-04-07T00:28:23.493Z,98773.31
2018-04-07T00:30:57.102Z,98778.47
2018-04-07T00:33:30.677Z,98769.46
2018-04-07T00:36:04.290Z,98764.69
2018-04-07T00:38:37.823Z,98771.56
2018-04-07T00:41:11.418Z,98764.53
2018-04-07T00:43:44.974Z,98758.47
2018-04-07T00:46:18.639Z,98767.44
2018-04-07T00:48:52.226Z,98758.99
2018-04-07T00:51:25.990Z,98764.42
2018-04-07T00:53:59.626Z,98764.20
2018-04-07T00:56:33.182Z,98771.11
2018-04-07T00:59:06.912Z,98767.36
2018-04-07T01:01:40.626Z,98763.63
2018-04-07T01:04:14.346Z,98762.64
2018-04-07T01:06:48.139Z,98756.47
2018-04-07T01:09:21.728Z,98750.87
2018-04-07T01:11:55.249Z,98753.36
2018-04-07T01:14:28.821Z,98755.52
2018-04-07T01:17:02.479Z,98749.30
2018-04-07T01:19:36.187Z,98744.42
2018-04-07T01:22:09.763Z,98735.03
2018-04-07T01:24:43.496Z,98753.48
2018-04-07T01:27:17.032Z,98739.16
2018-04-07T01:29:50.689Z,98737.13
2018-04-07T01:32:24.224Z,98738.97
2018-04-07T01:34:57.893Z,98732.34
2018-04-07T01:37:31.474Z,98720.70
2018-04-07T01:40:05.302Z,98734.56
2018-04-07T01:42:38.885Z,98728.31
2018-04-07T01:45:12.610Z,98742.58
2018-04-07T01:47:46.454Z,98746.83
2018-04-07T01:50:20.017Z,98753.11
2018-04-07T01:52:53.522Z,98754.80
2018-04-07T01:55:27.138Z,98747.73
2018-04-07T01:58:00.730Z,98750.08
2018-04-07T02:00:34.337Z,98742.66
2018-04-07T02:03:07.965Z,98734.64
2018-04-07T02:05:41.648Z,98731.42
2018-04-07T02:08:15.325Z,98730.92
2018-04-07T02:10:48.903Z,98728.86
2018-04-07T02:13:22.392Z,98729.23
2018-04-07T02:15:55.924Z,98729.13
2018-04-07T02:18:29.564Z,98728.02
2018-04-07T02:21:03.231Z,98722.35
2018-04-07T02:23:36.723Z,98728.28
2018-04-07T02:26:10.464Z,98721.98
2018-04-07T02:28:44.024Z,98711.04
2018-04-07T02:31:17.557Z,98719.84
2018-04-07T02:33:51.057Z,98718.53
2018-04-07T02:36:24.708Z,98718.53
2018-04-07T02:38:58.337Z,98705.55
2018-04-07T02:41:32.297Z,98708.22
2018-04-07T02:44:06.049Z,98708.50
2018-04-07T02:46:39.583Z,98709.20
2018-04-07T02:49:13.334Z,98699.99
2018-04-07T02:51:46.882Z,98708.20
2018-04-07T02:54:20.496Z,98700.67
2018-04-07T02:56:54.067Z,98701.28
2018-04-07T02:59:27.596Z,98699.22
2018-04-07T03:02:01.287Z,98692.94
2018-04-07T03:04:34.973Z,98688.23
2018-04-07T03:07:08.935Z,98702.70
2018-04-07T03:09:42.409Z,98695.25
2018-04-07T03:12:16.034Z,98689.34
2018-04-07T03:14:49.751Z,98691.24
2018-04-07T03:17:23.320Z,98690.52
2018-04-07T03:19:56.827Z,98688.45
2018-04-07T03:22:30.429Z,98693.72
2018-04-07T03:25:04.458Z,98689.59
2018-04-07T03:27:38.014Z,98690.55
2018-04-07T03:30:11.626Z,98702.78
2018-04-07T03:32:45.283Z,98690.84
2018-04-07T03:35:18.953Z,98681.66
2018-04-07T03:37:52.722Z,98684.27
2018-04-07T03:40:26.284Z,98686.43
2018-04-07T03:42:59.970Z,98682.88
2018-04-07T03:45:33.577Z,98693.16
2018-04-07T03:48:07.143Z,98682.78
2018-04-07T03:50:40.639Z,98688.61
2018-04-07T03:53:14.271Z,98679.30
2018-04-07T03:55:47.898Z,98674.90
2018-04-07T03:58:21.566Z,98680.77
2018-04-07T04:00:55.157Z,98678.72
2018-04-07T04:03:28.698Z,98674.86
2018-04-07T04:06:02.369Z,98676.48
2018-04-07T04:08:36.028Z,98676.23
2018-04-07T04:11:09.823Z,98673.77
2018-04-07T04:13:43.538Z,98668.20
2018-04-07T04:16:17.192Z,98670.20
2018-04-07T04:18:50.952Z,98671.86
2018-04-07T04:21:24.590Z,98672.13
2018-04-07T04:23:58.106Z,98678.19
2018-04-07T04:26:31.793Z,98679.30
2018-04-07T04:29:05.394Z,98684.38
2018-04-07T04:31:38.985Z,98671.84
2018-04-07T04:34:12.650Z,98670.95
2018-04-07T04:36:46.494Z,98670.72
2018-04-07T04:39:20.279Z,98664.23
2018-04-07T04:41:53.819Z,98669.34
2018-04-07T04:44:27.646Z,98667.03
2018-04-07T04:47:01.326Z,98666.96
2018-04-07T04:49:34.983Z,98662.91
2018-04-07T04:52:08.644Z,98656.89
2018-04-07T04:54:42.484Z,98661.26
2018-04-07T04:57:16.038Z,98653.74
2018-04-07T04:59:49.627Z,98654.55
2018-04-07T05:02:23.427Z,98658.66
2018-04-07T05:04:57.134Z,98658.45
2018-04-07T05:07:30.751Z,98663.45
2018-04-07T05:10:04.364Z,98658.84
2018-04-07T05:12:37.906Z,98663.00
2018-04-07T05:15:11.513Z,98667.89
2018-04-07T05:17:45.152Z,98667.06
2018-04-07T05:20:18.759Z,98664.25
2018-04-07T05:22:52.580Z,98669.63
2018-04-07T05:25:26.312Z,98665.25
2018-04-07T05:27:59.881Z,98665.80
2018-04-07T05:30:33.429Z,98658.67
2018-04-07T05:33:06.968Z,98662.16
2018-04-07T05:35:40.581Z,98653.88
2018-04-07T05:38:14.267Z,98663.15
2018-04-07T05:40:48.006Z,98655.48
2018-04-07T05:43:21.706Z,98663.98
2018-04-07T05:45:55.371Z,98656.58
2018-04-07T05:48:28.946Z,98652.14
2018-04-07T05:51:02.673Z,98661.81
2018-04-07T05:53:36.380Z,98659.59
2018-04-07T05:56:09.909Z,98649.58
2018-04-07T05:58:43.414Z,98662.27
2018-04-07T06:01:17.135Z,98649.06
2018-04-07T06:03:50.784Z,98665.80
2018-04-07T06:06:24.429Z,98664.78
2018-04-07T06:08:58.078Z,98652.78
2018-04-07T06:11:31.789Z,98656.53
2018-04-07T06:14:05.334Z,98657.95
2018-04-07T06:16:39.045Z,98664.81
2018-04-07T06:19:12.598Z,98682.30
2018-04-07T06:21:46.320Z,98670.30
2018-04-07T06:24:20.029Z,98666.43
2018-04-07T06:26:53.708Z,98668.09
2018-04-07T06:29:27.353Z,98660.31
2018-04-07T06:32:01.137Z,98664.42
2018-04-07T06:34:34.798Z,98656.59
2018-04-07T06:37:08.480Z,98665.38
2018-04-07T06:39:42.303Z,98681.56
2018-04-07T06:42:15.997Z,98664.91
2018-04-07T06:44:49.681Z,98659.13
2018-04-07T06:47:23.312Z,98661.20
2018-04-07T06:49:56.984Z,98666.16
2018-04-07T06:52:30.711Z,98661.81
2018-04-07T06:55:04.404Z,98672.17
2018-04-07T06:57:38.282Z,98672.11
2018-04-07T07:00:11.822Z,98671.56
2018-04-07T07:02:45.418Z,98666.07
2018-04-07T07:05:18.995Z,98664.74
2018-04-07T07:07:52.718Z,98658.95
2018-04-07T07:10:26.518Z,98661.94
2018-04-07T07:13:00.214Z,98658.70
2018-04-07T07:15:33.922Z,98681.64
2018-04-07T07:18:07.588Z,98662.03
2018-04-07T07:20:41.369Z,98659.55
2018-04-07T07:23:15.247Z,98661.56
2018-04-07T07:25:48.918Z,98654.68
2018-04-07T07:28:22.627Z,98661.87
2018-04-07T07:30:56.370Z,98651.48
2018-04-07T07:33:29.980Z,98653.31
2018-04-07T07:36:03.729Z,98659.41
2018-04-07T07:38:37.304Z,98658.60
2018-04-07T07:41:10.864Z,98653.59
2018-04-07T07:43:44.567Z,98648.61
2018-04-07T07:46:18.092Z,98649.71
2018-04-07T07:48:51.688Z,98653.52
2018-04-07T07:51:25.327Z,98646.41
2018-04-07T07:53:59.068Z,98651.33
2018-04-07T07:56:32.582Z,98647.95
2018-04-07T07:59:06.433Z,98654.14
2018-04-07T08:01:40.052Z,98648.36
2018-04-07T08:04:13.816Z,98639.77
2018-04-07T08:06:47.510Z,98639.72
2018-04-07T08:09:21.222Z,98649.84
2018-04-07T08:11:55.044Z,98648.84
2018-04-07T08:14:28.758Z,98650.83
2018-04-07T08:17:02.523Z,98651.43
2018-04-07T08:19:36.363Z,98648.92
2018-04-07T08:22:10.059Z,98651.52
2018-04-07T08:24:43.663Z,98646.77
2018-04-07T08:27:17.322Z,98646.91
2018-04-07T08:29:51.055Z,98664.21
2018-04-07T08:32:24.807Z,98663.22
2018-04-07T08:34:58.542Z,98650.59
2018-04-07T08:37:32.133Z,98648.83
2018-04-07T08:40:05.809Z,98643.34
2018-04-07T08:42:39.384Z,98653.27
2018-04-07T08:45:13.282Z,98653.64
2018-04-07T08:47:46.979Z,98653.84
2018-04-07T08:50:20.785Z,98657.62
2018-04-07T08:52:54.551Z,98644.48
2018-04-07T08:55:28.218Z,98642.56
2018-04-07T08:58:01.969Z,98635.01
2018-04-07T09:00:35.542Z,98646.16
2018-04-07T09:03:09.105Z,98636.27
2018-04-07T09:05:42.746Z,98637.28
2018-04-07T09:08:16.553Z,98638.36
2018-04-07T09:10:50.063Z,98630.30
2018-04-07T09:13:23.885Z,98631.39
2018-04-07T09:15:57.570Z,98624.41
2018-04-07T09:18:31.310Z,98633.45
2018-04-07T09:21:04.992Z,98637.73
2018-04-07T09:23:38.693Z,98638.57
2018-04-07T09:26:12.581Z,98632.47
2018-04-07T09:28:46.279Z,98628.22
2018-04-07T09:31:26.069Z,98623.83
2018-04-07T09:33:59.674Z,98628.09
2018-04-07T09:36:33.300Z,98622.88
2018-04-07T09:39:07.242Z,98624.03
2018-04-07T09:41:40.935Z,98631.06
2018-04-07T09:44:14.706Z,98629.18
2018-04-07T09:46:48.274Z,98629.17
2018-04-07T09:49:22.105Z,98619.85
2018-04-07T09:51:55.831Z,98628.25
2018-04-07T09:54:29.673Z,98623.79
2018-04-07T09:57:03.343Z,98627.95
2018-04-07T09:59:37.034Z,98620.92
2018-04-07T10:02:10.667Z,98625.11
2018-04-07T10:04:44.312Z,98613.66
2018-04-07T10:07:18.090Z,98623.80
2018-04-07T10:09:51.799Z,98613.17
2018-04-07T10:12:25.510Z,98609.41
2018-04-07T10:14:59.208Z,98607.77
2018-04-07T10:17:33.062Z,98614.64
2018-04-07T10:20:07.025Z,98611.79
2018-04-07T10:22:40.691Z,98611.56
2018-04-07T10:25:15.093Z,98614.54
2018-04-07T10:27:48.934Z,98605.57
2018-04-07T10:30:22.605Z,98599.28
2018-04-07T10:32:56.275Z,98594.89
2018-04-07T10:35:29.893Z,98593.13
2018-04-07T10:38:03.454Z,98595.52
2018-04-07T10:40:37.032Z,98586.80
2018-04-07T10:43:10.583Z,98597.18
2018-04-07T10:45:44.168Z,98600.77
2018-04-07T10:48:17.917Z,98599.45
2018-04-07T10:50:51.574Z,98598.34
2018-04-07T10:53:25.184Z,98591.67
2018-04-07T10:55:58.999Z,98584.76
2018-04-07T10:58:32.654Z,98582.83
2018-04-07T11:01:06.533Z,98583.73
2018-04-07T11:03:40.086Z,98582.36
2018-04-07T11:06:13.613Z,98583.78
2018-04-07T11:08:47.345Z,98576.31
2018-04-07T11:11:21.054Z,98580.25
2018-04-07T11:13:54.746Z,98584.03
2018-04-07T11:16:28.448Z,98578.95
2018-04-07T11:19:02.275Z,98575.17
2018-04-07T11:21:36.006Z,98574.12
2018-04-07T11:24:09.782Z,98559.71
2018-04-07T11:26:43.358Z,98568.47
2018-04-07T11:29:16.984Z,98565.75
2018-04-07T11:31:50.558Z,98567.21
2018-04-07T11:34:24.207Z,98560.72
2018-04-07T11:36:57.761Z,98565.64
2018-04-07T11:39:31.416Z,98560.76
2018-04-07T11:42:05.157Z,98560.09
2018-04-07T11:44:38.924Z,98558.83
2018-04-07T11:47:12.524Z,98555.75
2018-04-07T11:49:46.205Z,98552.39
2018-04-07T11:52:19.998Z,98551.61
2018-04-07T11:54:53.674Z,98554.89
2018-04-07T11:57:27.399Z,98554.89
2018-04-07T12:00:00.981Z,98553.41
2018-04-07T12:02:34.737Z,98545.96
2018-04-07T12:05:08.245Z,98552.95
2018-04-07T12:07:41.815Z,98551.84
2018-04-07T12:10:15.605Z,98548.65
2018-04-07T12:12:49.273Z,98549.56
2018-04-07T12:15:23.317Z,98544.97
2018-04-07T12:17:56.846Z,98551.52
2018-04-07T12:20:30.728Z,98548.51
2018-04-07T12:23:04.373Z,98550.94
2018-04-07T12:25:37.975Z,98553.06
2018-04-07T12:28:11.616Z,98547.72
2018-04-07T12:30:45.358Z,98539.81
2018-04-07T12:33:19.027Z,98537.84
2018-04-07T12:35:52.591Z,98539.83
2018-04-07T12:38:26.284Z,98536.87
2018-04-07T12:40:59.883Z,98536.73
2018-04-07T12:43:33.428Z,98543.63
2018-04-07T12:46:07.041Z,98537.70
2018-04-07T12:48:40.593Z,98529.29
2018-04-07T12:51:14.252Z,98515.86
2018-04-07T12:53:47.894Z,98522.91
2018-04-07T12:56:21.405Z,98522.12
2018-04-07T12:58:54.962Z,98508.89
2018-04-07T13:01:28.541Z,98507.50
2018-04-07T13:04:02.064Z,98506.52
2018-04-07T13:06:35.712Z,98499.41
2018-04-07T13:09:10.069Z,98493.09
2018-04-07T13:11:43.737Z,98494.31
2018-04-07T13:14:17.323Z,98489.14
2018-04-07T13:16:50.863Z,98480.84
2018-04-07T13:19:24.391Z,98481.04
2018-04-07T13:21:58.054Z,98478.08
2018-04-07T13:24:31.621Z,98481.69
2018-04-07T13:27:05.206Z,98477.33
2018-04-07T13:29:39.004Z,98473.38
2018-04-07T13:32:12.781Z,98461.13
2018-04-07T13:34:46.321Z,98467.05
2018-04-07T13:37:19.859Z,98459.34
2018-04-07T13:39:53.606Z,98449.86
2018-04-07T13:42:27.245Z,98445.70
2018-04-07T13:45:00.837Z,98442.55
2018-04-07T13:47:34.473Z,98442.16
2018-04-07T13:50:08.146Z,98439.41
2018-04-07T13:52:41.932Z,98438.19
2018-04-07T13:55:15.529Z,98433.63
2018-04-07T13:57:49.109Z,98431.11
2018-04-07T14:00:22.785Z,98418.83
2018-04-07T14:02:56.332Z,98412.90
2018-04-07T14:05:30.101Z,98414.89
2018-04-07T14:08:03.725Z,98408.16
2018-04-07T14:10:37.334Z,98408.71
2018-04-07T14:13:10.982Z,98411.77
2018-04-07T14:15:44.593Z,98404.84
2018-04-07T14:18:18.393Z,98412.06
2018-04-07T14:20:51.904Z,98400.01
2018-04-07T14:23:25.709Z,98397.11
2018-04-07T14:25:59.426Z,98388.89
2018-04-07T14:28:32.977Z,98381.62
2018-04-07T14:31:06.872Z,98395.80
2018-04-07T14:33:40.539Z,98385.64
2018-04-07T14:36:14.107Z,98393.37
2018-04-07T14:38:47.877Z,98387.00
2018-04-07T14:41:21.578Z,98393.93
2018-04-07T14:43:55.336Z,98376.89
2018-04-07T14:46:29.061Z,98375.25
2018-04-07T14:49:02.682Z,98380.89
2018-04-07T14:51:36.427Z,98373.15
2018-04-07T14:54:10.237Z,98364.95
2018-04-07T14:56:43.966Z,98368.56
2018-04-07T14:59:17.555Z,98375.38
2018-04-07T15:01:51.317Z,98358.17
2018-04-07T15:04:24.950Z,98361.59
2018-04-07T15:06:58.832Z,98360.37
2018-04-07T15:09:32.462Z,98363.88
2018-04-07T15:12:06.227Z,98370.81
2018-04-07T15:14:39.851Z,98371.52
2018-04-07T15:17:13.505Z,98377.27
2018-04-07T15:19:47.277Z,98374.04
2018-04-07T15:22:20.786Z,98368.28
2018-04-07T15:24:54.562Z,98369.02
2018-04-07T15:27:28.203Z,98363.80
2018-04-07T15:30:01.762Z,98360.03
2018-04-07T15:32:36.580Z,98371.28
2018-04-07T15:35:10.205Z,98363.98
2018-04-07T15:37:43.748Z,98363.50
2018-04-07T15:40:17.338Z,98356.35
2018-04-07T15:42:50.933Z,98375.69
2018-04-07T15:45:24.487Z,98367.18
2018-04-07T15:47:58.210Z,98364.49
2018-04-07T15:50:32.056Z,98363.85
2018-04-07T15:53:05.717Z,98365.80
2018-04-07T15:55:39.541Z,98357.95
2018-04-07T15:58:13.173Z,98359.79
2018-04-07T16:00:46.989Z,98354.11
2018-04-07T16:03:20.642Z,98359.46
2018-04-07T16:05:54.396Z,98351.30
2018-04-07T16:08:28.039Z,98359.14
2018-04-07T16:11:01.873Z,98350.80
2018-04-07T16:13:35.501Z,98349.83
2018-04-07T16:16:09.238Z,98357.84
2018-04-07T16:18:42.762Z,98354.31
2018-04-07T16:21:16.501Z,98352.52
2018-04-07T16:23:50.283Z,98356.30
2018-04-07T16:26:23.835Z,98356.84
2018-04-07T16:28:57.449Z,98351.58
2018-04-07T16:31:31.004Z,98352.33
2018-04-07T16:34:04.702Z,98352.25
2018-04-07T16:36:38.332Z,98346.41
2018-04-07T16:39:11.901Z,98342.70
2018-04-07T16:41:45.453Z,98354.44
2018-04-07T16:44:19.005Z,98352.48
2018-04-07T16:46:52.812Z,98349.16
2018-04-07T16:49:26.332Z,98341.26
2018-04-07T16:51:59.895Z,98343.27
2018-04-07T16:54:33.650Z,98341.34
2018-04-07T16:57:07.325Z,98340.77
2018-04-07T16:59:41.113Z,98339.36
2018-04-07T17:02:14.608Z,98339.58
2018-04-07T17:04:48.261Z,98344.33
2018-04-07T17:07:21.893Z,98341.19
2018-04-07T17:09:55.482Z,98341.61
2018-04-07T17:12:29.075Z,98346.78
2018-04-07T17:15:02.628Z,98346.36
2018-04-07T17:17:36.357Z,98356.42
2018-04-07T17:20:09.928Z,98353.88
2018-04-07T17:22:43.536Z,98358.04
2018-04-07T17:25:17.333Z,98353.11
2018-04-07T17:27:50.849Z,98351.90
2018-04-07T17:30:24.362Z,98355.06
2018-04-07T17:32:57.929Z,98355.46
2018-04-07T17:35:31.609Z,98352.11
2018-04-07T17:38:05.311Z,98361.95
2018-04-07T17:40:38.889Z,98367.28
2018-04-07T17:43:12.565Z,98363.10
2018-04-07T17:45:46.063Z,98355.37
2018-04-07T17:48:19.749Z,98351.02
2018-04-07T17:50:53.584Z,98354.95
2018-04-07T17:53:27.154Z,98358.30
2018-04-07T17:56:00.703Z,98363.42
2018-04-07T17:58:34.322Z,98361.05
2018-04-07T18:01:08.001Z,98356.84
2018-04-07T18:03:41.613Z,98357.22
2018-04-07T18:06:15.293Z,98361.67
2018-04-07T18:08:49.125Z,98358.64
2018-04-07T18:11:22.721Z,98357.25
2018-04-07T18:13:56.504Z,98360.98
2018-04-07T18:16:30.044Z,98360.11
2018-04-07T18:19:03.594Z,98362.64
2018-04-07T18:21:37.173Z,98361.00
2018-04-07T18:24:10.737Z,98363.45
2018-04-07T18:26:44.298Z,98365.18
2018-04-07T18:29:17.941Z,98372.42
2018-04-07T18:31:51.709Z,98368.59
2018-04-07T18:34:25.428Z,98378.37
2018-04-07T18:36:59.088Z,98374.55
2018-04-07T18:39:32.909Z,98381.18
2018-04-07T18:42:06.568Z,98380.11
2018-04-07T18:44:40.199Z,98386.19
2018-04-07T18:47:13.734Z,98393.02
2018-04-07T18:49:47.434Z,98393.25
2018-04-07T18:52:20.945Z,98390.56
2018-04-07T18:54:54.717Z,98390.52
2018-04-07T18:57:28.249Z,98395.97
2018-04-07T19:00:01.882Z,98394.78
2018-04-07T19:02:35.560Z,98403.98
2018-04-07T19:05:09.162Z,98406.76
2018-04-07T19:07:42.813Z,98403.36
2018-04-07T19:10:16.489Z,98409.70
2018-04-07T19:12:50.159Z,98405.16
2018-04-07T19:15:23.790Z,98411.61
2018-04-07T19:17:57.514Z,98404.08
2018-04-07T19:20:31.313Z,98405.97
2018-04-07T19:23:04.872Z,98407.22
2018-04-07T19:25:38.518Z,98413.58
2018-04-07T19:28:12.057Z,98412.24
2018-04-07T19:30:45.601Z,98416.70
2018-04-07T19:33:19.244Z,98417.22
2018-04-07T19:35:52.972Z,98417.40
2018-04-07T19:38:26.889Z,98420.89
2018-04-07T19:41:00.478Z,98424.39
2018-04-07T19:43:33.974Z,98422.22
2018-04-07T19:46:07.530Z,98419.94
2018-04-07T19:48:41.057Z,98423.13
2018-04-07T19:51:14.621Z,98424.47
2018-04-07T19:53:48.322Z,98425.95
2018-04-07T19:56:21.970Z,98424.77
2018-04-07T19:58:55.810Z,98425.11
2018-04-07T20:01:29.473Z,98422.45
2018-04-07T20:04:03.112Z,98424.67
2018-04-07T20:06:36.688Z,98423.91
2018-04-07T20:09:10.321Z,98421.84
2018-04-07T20:11:44.042Z,98426.75
2018-04-07T20:14:17.844Z,98421.94
2018-04-07T20:16:51.390Z,98414.27
2018-04-07T20:19:25.191Z,98424.70
2018-04-07T20:21:58.998Z,98421.02
2018-04-07T20:24:32.717Z,98422.08
2018-04-07T20:27:06.558Z,98421.59
2018-04-07T20:29:40.253Z,98419.09
2018-04-07T20:32:14.075Z,98421.56
2018-04-07T20:34:47.832Z,98421.58
2018-04-07T20:37:21.565Z,98416.70
2018-04-07T20:39:55.112Z,98417.73
2018-04-07T20:42:28.692Z,98418.80
2018-04-07T20:45:02.374Z,98418.39
2018-04-07T20:47:36.117Z,98417.55
2018-04-07T20:50:09.799Z,98418.28
2018-04-07T20:52:43.604Z,98417.27
2018-04-07T20:55:17.308Z,98418.64
2018-04-07T20:57:50.930Z,98414.07
2018-04-07T21:00:24.492Z,98415.02
2018-04-07T21:02:58.107Z,98419.69
2018-04-07T21:05:31.662Z,98410.83
2018-04-07T21:08:05.295Z,98412.27
2018-04-07T21:10:38.874Z,98413.20
2018-04-07T21:13:12.419Z,98410.95
2018-04-07T21:15:45.954Z,98413.41
2018-04-07T21:18:19.743Z,98416.20
2018-04-07T21:20:53.489Z,98413.02
2018-04-07T21:23:27.147Z,98410.09
2018-04-07T21:26:00.717Z,98411.11
2018-04-07T21:28:34.524Z,98406.03
2018-04-07T21:31:08.024Z,98405.97
2018-04-07T21:33:41.797Z,98407.12
2018-04-07T21:36:15.373Z,98403.09
2018-04-07T21:38:48.904Z,98408.31
2018-04-07T21:41:22.646Z,98404.41
2018-04-07T21:43:56.231Z,98407.45
2018-04-07T21:46:29.874Z,98401.72
2018-04-07T21:49:03.685Z,98407.52
2018-04-07T21:51:37.384Z,98410.91
2018-04-07T21:54:11.089Z,98408.03
2018-04-07T21:56:44.735Z,98400.05
2018-04-07T21:59:18.217Z,98404.20
2018-04-07T22:01:51.869Z,98408.09
2018-04-07T22:04:25.410Z,98395.84
2018-04-07T22:06:59.037Z,98398.03
2018-04-07T22:09:32.657Z,98399.95
2018-04-07T22:12:06.406Z,98390.31
2018-04-07T22:14:39.978Z,98393.84
2018-04-07T22:17:13.751Z,98392.28
2018-04-07T22:19:47.322Z,98396.97
2018-04-07T22:22:20.861Z,98395.45
2018-04-07T22:24:54.456Z,98395.91
2018-04-07T22:27:28.163Z,98391.44
2018-04-07T22:30:01.760Z,98388.17
2018-04-07T22:32:35.549Z,98389.66
2018-04-07T22:35:09.066Z,98385.21
2018-04-07T22:37:42.687Z,98396.52
2018-04-07T22:40:16.344Z,98384.58
2018-04-07T22:42:50.121Z,98392.90
2018-04-07T22:45:23.649Z,98393.33
2018-04-07T22:47:57.534Z,98392.21
2018-04-07T22:50:31.186Z,98394.53
2018-04-07T22:53:04.818Z,98389.84
2018-04-07T22:55:38.337Z,98388.34
2018-04-07T22:58:11.969Z,98390.25
2018-04-07T23:00:45.569Z,98387.77
2018-04-07T23:03:19.330Z,98389.22
2018-04-07T23:05:53.156Z,98382.81
2018-04-07T23:08:26.927Z,98378.83
2018-04-07T23:11:00.520Z,98380.61
2018-04-07T23:13:34.099Z,98380.33
2018-04-07T23:16:07.625Z,98379.56
2018-04-07T23:18:41.250Z,98377.63
2018-04-07T23:21:15.028Z,98381.11
2018-04-07T23:23:48.720Z,98377.16
2018-04-07T23:26:22.382Z,98380.09
2018-04-07T23:28:55.885Z,98373.77
2018-04-07T23:31:29.479Z,98370.08
2018-04-07T23:34:03.030Z,98372.30
2018-04-07T23:36:36.725Z,98374.98
2018-04-07T23:39:10.272Z,98368.05
2018-04-07T23:41:43.790Z,98363.98
2018-04-07T23:44:17.314Z,98364.38
2018-04-07T23:46:51.087Z,98368.02
2018-04-07T23:49:24.842Z,98366.72
2018-04-07T23:51:58.479Z,98365.62
2018-04-07T23:54:32.023Z,98358.56
2018-04-07T23:57:05.537Z,98365.45
2018-04-07T23:59:39.252Z,98363.10
